createdAt,value
2017-12-13T00:00:01.907Z,979.73
2017-12-13T00:01:01.882Z,979.69
2017-12-13T00:02:01.879Z,979.72
2017-12-13T00:03:01.875Z,979.73
2017-12-13T00:04:22.870Z,979.76
2017-12-13T00:05:01.861Z,979.73
2017-12-13T00:06:01.847Z,979.70
2017-12-13T00:07:01.836Z,979.72
2017-12-13T00:08:01.829Z,979.75
2017-12-13T00:09:01.831Z,979.76
2017-12-13T00:10:22.822Z,979.73
2017-12-13T00:11:01.805Z,979.71
2017-12-13T00:12:01.796Z,979.72
2017-12-13T00:13:01.793Z,979.75
2017-12-13T00:14:01.785Z,979.73
2017-12-13T00:15:01.776Z,979.75
2017-12-13T00:16:22.794Z,979.73
2017-12-13T00:17:01.760Z,979.72
2017-12-13T00:18:01.749Z,979.73
2017-12-13T00:19:01.738Z,979.77
2017-12-13T00:20:01.772Z,979.71
2017-12-13T00:21:01.729Z,979.72
2017-12-13T00:22:22.779Z,979.70
2017-12-13T00:23:01.706Z,979.68
2017-12-13T00:24:01.703Z,979.68
2017-12-13T00:25:01.695Z,979.70
2017-12-13T00:26:01.686Z,979.71
2017-12-13T00:27:01.684Z,979.73
2017-12-13T00:28:22.672Z,979.72
2017-12-13T00:29:01.655Z,979.74
2017-12-13T00:30:01.650Z,979.72
2017-12-13T00:31:01.647Z,979.74
2017-12-13T00:32:01.667Z,979.70
2017-12-13T00:33:01.624Z,979.72
2017-12-13T00:34:22.624Z,979.72
2017-12-13T00:35:01.605Z,979.72
2017-12-13T00:36:01.609Z,979.73
2017-12-13T00:37:01.599Z,979.75
2017-12-13T00:38:01.608Z,979.78
2017-12-13T00:39:01.580Z,979.75
2017-12-13T00:40:22.575Z,979.72
2017-12-13T00:41:01.562Z,979.77
2017-12-13T00:42:01.548Z,979.78
2017-12-13T00:43:01.544Z,979.79
2017-12-13T00:44:01.534Z,979.80
2017-12-13T00:45:01.524Z,979.80
2017-12-13T00:46:22.530Z,979.81
2017-12-13T00:47:01.513Z,979.84
2017-12-13T00:48:01.506Z,979.83
2017-12-13T00:49:01.498Z,979.81
2017-12-13T00:50:01.485Z,979.83
2017-12-13T00:51:01.482Z,979.88
2017-12-13T00:52:22.482Z,979.85
2017-12-13T00:53:01.458Z,979.86
2017-12-13T00:54:01.450Z,979.89
2017-12-13T00:55:01.441Z,979.92
2017-12-13T00:56:01.438Z,979.93
2017-12-13T00:57:01.430Z,979.93
2017-12-13T00:58:22.431Z,979.95
2017-12-13T00:59:01.438Z,979.97
2017-12-13T01:00:01.406Z,980.01
2017-12-13T01:01:01.397Z,980.01
2017-12-13T01:02:01.385Z,980.03
2017-12-13T01:03:01.387Z,980.08
2017-12-13T01:04:22.398Z,980.11
2017-12-13T01:05:01.368Z,980.09
2017-12-13T01:06:01.359Z,980.13
2017-12-13T01:07:01.366Z,980.14
2017-12-13T01:08:01.335Z,980.19
2017-12-13T01:09:01.332Z,980.20
2017-12-13T01:10:22.327Z,980.21
2017-12-13T01:11:01.317Z,980.21
2017-12-13T01:12:01.314Z,980.22
2017-12-13T01:13:01.299Z,980.20
2017-12-13T01:14:01.299Z,980.20
2017-12-13T01:15:01.284Z,980.14
2017-12-13T01:16:22.292Z,980.17
2017-12-13T01:17:01.271Z,980.19
2017-12-13T01:18:01.260Z,980.18
2017-12-13T01:19:01.266Z,980.20
2017-12-13T01:20:01.314Z,980.17
2017-12-13T01:21:01.273Z,980.27
2017-12-13T01:22:22.255Z,980.31
2017-12-13T01:23:01.228Z,980.29
2017-12-13T01:24:01.224Z,980.35
2017-12-13T01:25:01.231Z,980.32
2017-12-13T01:26:01.220Z,980.34
2017-12-13T01:27:01.195Z,980.34
2017-12-13T01:28:22.198Z,980.31
2017-12-13T01:29:01.179Z,980.36
2017-12-13T01:30:01.167Z,980.35
2017-12-13T01:31:01.170Z,980.35
2017-12-13T01:32:01.191Z,980.37
2017-12-13T01:33:01.156Z,980.40
2017-12-13T01:34:22.148Z,980.42
2017-12-13T01:35:01.152Z,980.39
2017-12-13T01:36:01.128Z,980.33
2017-12-13T01:37:01.120Z,980.46
2017-12-13T01:38:01.122Z,980.43
2017-12-13T01:39:01.103Z,980.41
2017-12-13T01:40:22.104Z,980.45
2017-12-13T01:41:01.094Z,980.40
2017-12-13T01:42:01.086Z,980.41
2017-12-13T01:43:01.101Z,980.40
2017-12-13T01:44:01.072Z,980.41
2017-12-13T01:45:01.064Z,980.48
2017-12-13T01:46:22.069Z,980.53
2017-12-13T01:47:01.045Z,980.49
2017-12-13T01:48:01.041Z,980.53
2017-12-13T01:49:01.033Z,980.47
2017-12-13T01:50:01.017Z,980.55
2017-12-13T01:51:01.013Z,980.56
2017-12-13T01:52:22.010Z,980.54
2017-12-13T01:53:01.002Z,980.55
2017-12-13T01:54:00.997Z,980.54
2017-12-13T01:55:00.991Z,980.52
2017-12-13T01:56:00.987Z,980.50
2017-12-13T01:57:01.027Z,980.52
2017-12-13T01:58:21.972Z,980.54
2017-12-13T01:59:00.955Z,980.54
2017-12-13T02:00:00.946Z,980.49
2017-12-13T02:01:00.940Z,980.52
2017-12-13T02:02:00.936Z,980.49
2017-12-13T02:03:00.956Z,980.45
2017-12-13T02:04:21.953Z,980.50
2017-12-13T02:05:00.913Z,980.47
2017-12-13T02:06:00.919Z,980.52
2017-12-13T02:07:00.909Z,980.49
2017-12-13T02:08:00.886Z,980.52
2017-12-13T02:09:00.898Z,980.51
2017-12-13T02:10:21.890Z,980.52
2017-12-13T02:11:00.872Z,980.50
2017-12-13T02:12:00.858Z,980.50
2017-12-13T02:13:00.884Z,980.58
2017-12-13T02:14:00.846Z,980.56
2017-12-13T02:15:00.855Z,980.64
2017-12-13T02:16:21.852Z,980.61
2017-12-13T02:17:00.828Z,980.60
2017-12-13T02:18:00.828Z,980.58
2017-12-13T02:19:00.818Z,980.61
2017-12-13T02:20:00.816Z,980.58
2017-12-13T02:21:00.835Z,980.57
2017-12-13T02:22:21.787Z,980.59
2017-12-13T02:23:00.790Z,980.61
2017-12-13T02:24:00.784Z,980.59
2017-12-13T02:25:00.771Z,980.61
2017-12-13T02:26:00.757Z,980.59
2017-12-13T02:27:00.750Z,980.60
2017-12-13T02:28:21.761Z,980.58
2017-12-13T02:29:00.735Z,980.55
2017-12-13T02:30:00.723Z,980.59
2017-12-13T02:31:00.733Z,980.61
2017-12-13T02:32:00.733Z,980.62
2017-12-13T02:33:00.713Z,980.59
2017-12-13T02:34:21.697Z,980.62
2017-12-13T02:35:00.701Z,980.59
2017-12-13T02:36:00.681Z,980.60
2017-12-13T02:37:00.685Z,980.64
2017-12-13T02:38:00.662Z,980.65
2017-12-13T02:39:00.662Z,980.67
2017-12-13T02:40:21.673Z,980.63
2017-12-13T02:41:00.641Z,980.66
2017-12-13T02:42:00.624Z,980.69
2017-12-13T02:43:00.619Z,980.63
2017-12-13T02:44:00.617Z,980.66
2017-12-13T02:45:00.600Z,980.64
2017-12-13T02:46:21.602Z,980.59
2017-12-13T02:47:00.604Z,980.64
2017-12-13T02:48:00.620Z,980.61
2017-12-13T02:49:00.577Z,980.65
2017-12-13T02:50:00.570Z,980.64
2017-12-13T02:51:00.554Z,980.66
2017-12-13T02:52:21.575Z,980.62
2017-12-13T02:53:00.542Z,980.65
2017-12-13T02:54:00.537Z,980.60
2017-12-13T02:55:00.525Z,980.63
2017-12-13T02:56:00.520Z,980.62
2017-12-13T02:57:00.510Z,980.56
2017-12-13T02:58:21.502Z,980.55
2017-12-13T02:59:00.508Z,980.53
2017-12-13T03:00:00.492Z,980.53
2017-12-13T03:01:00.503Z,980.60
2017-12-13T03:02:00.475Z,980.64
2017-12-13T03:03:00.459Z,980.61
2017-12-13T03:04:21.472Z,980.60
2017-12-13T03:05:00.451Z,980.65
2017-12-13T03:06:00.445Z,980.66
2017-12-13T03:07:00.432Z,980.65
2017-12-13T03:08:00.455Z,980.66
2017-12-13T03:09:00.419Z,980.71
2017-12-13T03:10:21.416Z,980.65
2017-12-13T03:11:00.410Z,980.68
2017-12-13T03:12:00.398Z,980.66
2017-12-13T03:13:00.393Z,980.64
2017-12-13T03:14:00.389Z,980.61
2017-12-13T03:15:00.368Z,980.64
2017-12-13T03:16:21.375Z,980.62
2017-12-13T03:17:00.374Z,980.57
2017-12-13T03:18:00.352Z,980.61
2017-12-13T03:19:00.344Z,980.55
2017-12-13T03:20:00.336Z,980.57
2017-12-13T03:21:00.332Z,980.54
2017-12-13T03:22:21.316Z,980.57
2017-12-13T03:23:00.310Z,980.54
2017-12-13T03:24:00.309Z,980.53
2017-12-13T03:25:00.298Z,980.60
2017-12-13T03:26:00.286Z,980.57
2017-12-13T03:27:00.284Z,980.60
2017-12-13T03:28:21.283Z,980.59
2017-12-13T03:29:00.274Z,980.58
2017-12-13T03:30:00.289Z,980.57
2017-12-13T03:31:00.249Z,980.60
2017-12-13T03:32:00.246Z,980.52
2017-12-13T03:33:00.231Z,980.50
2017-12-13T03:34:21.233Z,980.51
2017-12-13T03:35:00.228Z,980.52
2017-12-13T03:36:00.217Z,980.51
2017-12-13T03:37:00.216Z,980.46
2017-12-13T03:38:00.206Z,980.45
2017-12-13T03:39:00.192Z,980.46
2017-12-13T03:40:21.188Z,980.44
2017-12-13T03:41:00.178Z,980.46
2017-12-13T03:42:00.167Z,980.46
2017-12-13T03:43:00.157Z,980.45
2017-12-13T03:44:00.171Z,980.47
2017-12-13T03:45:00.143Z,980.44
2017-12-13T03:46:21.145Z,980.42
2017-12-13T03:47:00.132Z,980.47
2017-12-13T03:48:00.121Z,980.50
2017-12-13T03:49:00.111Z,980.44
2017-12-13T03:50:00.101Z,980.44
2017-12-13T03:51:00.113Z,980.42
2017-12-13T03:52:21.099Z,980.44
2017-12-13T03:53:00.077Z,980.41
2017-12-13T03:54:00.073Z,980.41
2017-12-13T03:55:00.064Z,980.41
2017-12-13T03:56:00.053Z,980.40
2017-12-13T03:57:00.048Z,980.39
2017-12-13T03:58:21.047Z,980.43
2017-12-13T03:59:00.032Z,980.44
2017-12-13T04:00:00.029Z,980.48
2017-12-13T04:01:00.015Z,980.43
2017-12-13T04:02:00.008Z,980.49
2017-12-13T04:03:00.000Z,980.45
2017-12-13T04:04:21.005Z,980.47
2017-12-13T04:04:59.984Z,980.47
2017-12-13T04:05:59.990Z,980.46
2017-12-13T04:06:59.962Z,980.46
2017-12-13T04:07:59.958Z,980.45
2017-12-13T04:08:59.965Z,980.47
2017-12-13T04:10:20.950Z,980.48
2017-12-13T04:10:59.936Z,980.48
2017-12-13T04:11:59.926Z,980.55
2017-12-13T04:12:59.922Z,980.51
2017-12-13T04:13:59.905Z,980.45
2017-12-13T04:14:59.898Z,980.46
2017-12-13T04:16:20.896Z,980.48
2017-12-13T04:16:59.880Z,980.50
2017-12-13T04:17:59.882Z,980.51
2017-12-13T04:18:59.875Z,980.58
2017-12-13T04:19:59.851Z,980.52
2017-12-13T04:20:59.848Z,980.48
2017-12-13T04:22:20.843Z,980.47
2017-12-13T04:22:59.883Z,980.47
2017-12-13T04:23:59.828Z,980.43
2017-12-13T04:24:59.811Z,980.46
2017-12-13T04:25:59.812Z,980.43
2017-12-13T04:26:59.799Z,980.47
2017-12-13T04:28:20.811Z,980.47
2017-12-13T04:28:59.796Z,980.48
2017-12-13T04:29:59.771Z,980.52
2017-12-13T04:30:59.764Z,980.53
2017-12-13T04:31:59.758Z,980.49
2017-12-13T04:32:59.748Z,980.55
2017-12-13T04:34:20.746Z,980.52
2017-12-13T04:34:59.725Z,980.51
2017-12-13T04:35:59.734Z,980.51
2017-12-13T04:36:59.718Z,980.52
2017-12-13T04:37:59.704Z,980.49
2017-12-13T04:38:59.696Z,980.53
2017-12-13T04:40:20.723Z,980.55
2017-12-13T04:40:59.681Z,980.48
2017-12-13T04:41:59.674Z,980.48
2017-12-13T04:42:59.682Z,980.48
2017-12-13T04:43:59.652Z,980.49
2017-12-13T04:44:59.640Z,980.44
2017-12-13T04:46:20.641Z,980.48
2017-12-13T04:46:59.637Z,980.49
2017-12-13T04:47:59.630Z,980.45
2017-12-13T04:48:59.635Z,980.44
2017-12-13T04:49:59.598Z,980.47
2017-12-13T04:50:59.593Z,980.44
2017-12-13T04:52:20.593Z,980.48
2017-12-13T04:52:59.576Z,980.44
2017-12-13T04:53:59.566Z,980.45
2017-12-13T04:54:59.563Z,980.48
2017-12-13T04:55:59.542Z,980.46
2017-12-13T04:56:59.548Z,980.48
2017-12-13T04:58:20.535Z,980.53
2017-12-13T04:58:59.521Z,980.47
2017-12-13T04:59:59.515Z,980.50
2017-12-13T05:00:59.524Z,980.46
2017-12-13T05:01:59.495Z,980.44
2017-12-13T05:02:59.491Z,980.46
2017-12-13T05:04:20.503Z,980.41
2017-12-13T05:04:59.479Z,980.41
2017-12-13T05:05:59.462Z,980.41
2017-12-13T05:06:59.448Z,980.38
2017-12-13T05:07:59.453Z,980.38
2017-12-13T05:08:59.453Z,980.38
2017-12-13T05:10:20.433Z,980.39
2017-12-13T05:10:59.420Z,980.34
2017-12-13T05:11:59.405Z,980.31
2017-12-13T05:12:59.416Z,980.25
2017-12-13T05:13:59.394Z,980.22
2017-12-13T05:14:59.396Z,980.24
2017-12-13T05:16:20.389Z,980.21
2017-12-13T05:16:59.370Z,980.21
2017-12-13T05:17:59.360Z,980.19
2017-12-13T05:18:59.399Z,980.20
2017-12-13T05:19:59.366Z,980.16
2017-12-13T05:20:59.337Z,980.16
2017-12-13T05:22:20.333Z,980.17
2017-12-13T05:22:59.321Z,980.11
2017-12-13T05:23:59.305Z,980.14
2017-12-13T05:24:59.303Z,980.11
2017-12-13T05:25:59.305Z,980.09
2017-12-13T05:26:59.284Z,980.18
2017-12-13T05:28:20.282Z,980.23
2017-12-13T05:28:59.262Z,980.20
2017-12-13T05:29:59.265Z,980.18
2017-12-13T05:30:59.271Z,980.24
2017-12-13T05:31:59.235Z,980.17
2017-12-13T05:32:59.229Z,980.18
2017-12-13T05:34:20.224Z,980.16
2017-12-13T05:34:59.215Z,980.12
2017-12-13T05:35:59.205Z,980.10
2017-12-13T05:36:59.194Z,980.08
2017-12-13T05:37:59.202Z,980.10
2017-12-13T05:38:59.206Z,980.08
2017-12-13T05:40:20.172Z,980.11
2017-12-13T05:40:59.177Z,980.04
2017-12-13T05:41:59.155Z,980.05
2017-12-13T05:42:59.140Z,980.05
2017-12-13T05:43:59.138Z,980.04
2017-12-13T05:44:59.120Z,980.01
2017-12-13T05:46:20.121Z,980.01
2017-12-13T05:46:59.125Z,980.03
2017-12-13T05:47:59.096Z,980.03
2017-12-13T05:48:59.086Z,980.03
2017-12-13T05:49:59.081Z,980.06
2017-12-13T05:50:59.068Z,980.06
2017-12-13T05:52:20.080Z,980.02
2017-12-13T05:52:59.044Z,979.96
2017-12-13T05:53:59.045Z,979.94
2017-12-13T05:54:59.029Z,979.95
2017-12-13T05:55:59.026Z,979.97
2017-12-13T05:56:59.012Z,979.95
2017-12-13T05:58:20.012Z,979.93
2017-12-13T05:58:58.990Z,979.95
2017-12-13T05:59:58.991Z,979.94
2017-12-13T06:00:58.992Z,979.92
2017-12-13T06:01:58.962Z,979.95
2017-12-13T06:02:58.960Z,979.91
2017-12-13T06:04:20.092Z,979.90
2017-12-13T06:04:58.969Z,979.91
2017-12-13T06:05:58.933Z,979.88
2017-12-13T06:06:58.925Z,979.86
2017-12-13T06:07:58.927Z,979.82
2017-12-13T06:08:58.910Z,979.83
2017-12-13T06:10:19.906Z,979.81
2017-12-13T06:10:58.887Z,979.85
2017-12-13T06:11:58.877Z,979.86
2017-12-13T06:12:58.873Z,979.88
2017-12-13T06:13:58.858Z,979.86
2017-12-13T06:14:58.862Z,979.86
2017-12-13T06:16:19.854Z,979.84
2017-12-13T06:16:58.839Z,979.88
2017-12-13T06:17:58.865Z,979.88
2017-12-13T06:18:58.821Z,979.90
2017-12-13T06:19:58.800Z,979.87
2017-12-13T06:20:58.800Z,979.90
2017-12-13T06:22:19.805Z,979.88
2017-12-13T06:22:58.778Z,979.87
2017-12-13T06:23:58.773Z,979.85
2017-12-13T06:24:58.757Z,979.87
2017-12-13T06:25:58.752Z,979.82
2017-12-13T06:26:58.739Z,979.85
2017-12-13T06:28:19.740Z,979.87
2017-12-13T06:28:58.751Z,979.86
2017-12-13T06:29:58.714Z,979.88
2017-12-13T06:30:58.710Z,979.85
2017-12-13T06:31:58.695Z,979.88
2017-12-13T06:32:58.684Z,979.89
2017-12-13T06:34:19.680Z,979.94
2017-12-13T06:34:58.674Z,979.96
2017-12-13T06:35:58.660Z,979.92
2017-12-13T06:36:58.658Z,979.93
2017-12-13T06:37:58.642Z,979.90
2017-12-13T06:38:58.661Z,979.95
2017-12-13T06:40:19.629Z,979.85
2017-12-13T06:40:58.613Z,979.91
2017-12-13T06:41:58.608Z,979.86
2017-12-13T06:42:58.598Z,979.86
2017-12-13T06:43:58.599Z,979.83
2017-12-13T06:44:58.593Z,979.85
2017-12-13T06:46:19.577Z,979.79
2017-12-13T06:46:58.568Z,979.82
2017-12-13T06:47:58.557Z,979.79
2017-12-13T06:48:58.548Z,979.78
2017-12-13T06:49:58.534Z,979.78
2017-12-13T06:50:58.521Z,979.79
2017-12-13T06:52:19.524Z,979.80
2017-12-13T06:52:58.518Z,979.70
2017-12-13T06:53:58.510Z,979.66
2017-12-13T06:54:58.509Z,979.68
2017-12-13T06:55:58.484Z,979.63
2017-12-13T06:56:58.525Z,979.60
2017-12-13T06:58:19.473Z,979.57
2017-12-13T06:58:58.462Z,979.57
2017-12-13T06:59:58.449Z,979.54
2017-12-13T07:00:58.440Z,979.49
2017-12-13T07:01:58.433Z,979.50
2017-12-13T07:02:58.429Z,979.51
2017-12-13T07:04:19.446Z,979.47
2017-12-13T07:04:58.413Z,979.53
2017-12-13T07:05:58.393Z,979.51
2017-12-13T07:06:58.398Z,979.49
2017-12-13T07:07:58.376Z,979.52
2017-12-13T07:08:58.373Z,979.51
2017-12-13T07:10:19.362Z,979.49
2017-12-13T07:10:58.354Z,979.53
2017-12-13T07:11:58.346Z,979.52
2017-12-13T07:12:58.330Z,979.53
2017-12-13T07:13:58.332Z,979.55
2017-12-13T07:14:58.320Z,979.57
2017-12-13T07:16:19.310Z,979.54
2017-12-13T07:16:58.310Z,979.52
2017-12-13T07:17:58.289Z,979.50
2017-12-13T07:18:58.337Z,979.46
2017-12-13T07:19:58.273Z,979.45
2017-12-13T07:20:58.274Z,979.47
2017-12-13T07:22:19.288Z,979.41
2017-12-13T07:22:58.243Z,979.43
2017-12-13T07:23:58.234Z,979.43
2017-12-13T07:24:58.224Z,979.38
2017-12-13T07:25:58.218Z,979.37
2017-12-13T07:26:58.232Z,979.39
2017-12-13T07:28:19.208Z,979.36
2017-12-13T07:28:58.201Z,979.33
2017-12-13T07:29:58.237Z,979.30
2017-12-13T07:30:58.187Z,979.31
2017-12-13T07:31:58.175Z,979.29
2017-12-13T07:32:58.158Z,979.32
2017-12-13T07:34:19.153Z,979.31
2017-12-13T07:34:58.154Z,979.35
2017-12-13T07:35:58.141Z,979.38
2017-12-13T07:36:58.118Z,979.38
2017-12-13T07:37:58.114Z,979.42
2017-12-13T07:38:58.100Z,979.43
2017-12-13T07:40:19.115Z,979.40
2017-12-13T07:40:58.093Z,979.40
2017-12-13T07:41:58.077Z,979.41
2017-12-13T07:42:58.075Z,979.36
2017-12-13T07:43:58.117Z,979.38
2017-12-13T07:44:58.050Z,979.38
2017-12-13T07:46:19.046Z,979.32
2017-12-13T07:46:58.033Z,979.32
2017-12-13T07:47:58.040Z,979.35
2017-12-13T07:48:58.010Z,979.28
2017-12-13T07:49:58.014Z,979.31
2017-12-13T07:50:58.001Z,979.29
2017-12-13T07:52:19.003Z,979.26
2017-12-13T07:52:57.978Z,979.29
2017-12-13T07:53:57.973Z,979.23
2017-12-13T07:54:57.967Z,979.21
2017-12-13T07:55:57.958Z,979.16
2017-12-13T07:56:57.951Z,979.11
2017-12-13T07:58:18.946Z,979.11
2017-12-13T07:58:58.003Z,979.02
2017-12-13T07:59:57.925Z,979.04
2017-12-13T08:00:57.926Z,979.03
2017-12-13T08:01:57.909Z,979.03
2017-12-13T08:02:57.909Z,979.06
2017-12-13T08:04:18.896Z,978.97
2017-12-13T08:04:57.938Z,979.05
2017-12-13T08:05:57.881Z,979.02
2017-12-13T08:06:57.860Z,979.00
2017-12-13T08:07:57.849Z,978.99
2017-12-13T08:08:57.850Z,979.04
2017-12-13T08:10:18.848Z,978.98
2017-12-13T08:10:57.832Z,978.97
2017-12-13T08:11:57.819Z,979.01
2017-12-13T08:12:57.812Z,979.00
2017-12-13T08:13:57.810Z,978.99
2017-12-13T08:14:57.795Z,979.01
2017-12-13T08:16:18.799Z,978.94
2017-12-13T08:16:57.779Z,978.96
2017-12-13T08:17:57.776Z,978.96
2017-12-13T08:18:57.765Z,978.98
2017-12-13T08:19:57.760Z,978.93
2017-12-13T08:20:57.754Z,978.97
2017-12-13T08:22:18.749Z,978.96
2017-12-13T08:22:57.737Z,978.91
2017-12-13T08:23:57.729Z,978.93
2017-12-13T08:24:57.727Z,978.94
2017-12-13T08:25:57.714Z,978.90
2017-12-13T08:26:57.714Z,978.89
2017-12-13T08:28:18.706Z,978.93
2017-12-13T08:28:57.682Z,978.82
2017-12-13T08:29:57.676Z,978.80
2017-12-13T08:30:57.674Z,978.89
2017-12-13T08:31:57.665Z,978.80
2017-12-13T08:32:57.653Z,978.85
2017-12-13T08:34:18.653Z,978.82
2017-12-13T08:34:57.640Z,978.74
2017-12-13T08:35:57.647Z,978.78
2017-12-13T08:36:57.625Z,978.73
2017-12-13T08:37:57.612Z,978.81
2017-12-13T08:38:57.622Z,978.77
2017-12-13T08:40:18.601Z,978.72
2017-12-13T08:40:57.604Z,978.72
2017-12-13T08:41:57.592Z,978.69
2017-12-13T08:42:57.574Z,978.69
2017-12-13T08:43:57.563Z,978.70
2017-12-13T08:44:57.563Z,978.63
2017-12-13T08:46:18.552Z,978.70
2017-12-13T08:46:57.553Z,978.64
2017-12-13T08:47:57.535Z,978.66
2017-12-13T08:48:57.529Z,978.67
2017-12-13T08:49:57.520Z,978.65
2017-12-13T08:50:57.510Z,978.62
2017-12-13T08:52:18.511Z,978.59
2017-12-13T08:52:57.508Z,978.60
2017-12-13T08:53:57.489Z,978.59
2017-12-13T08:54:57.481Z,978.61
2017-12-13T08:55:57.473Z,978.64
2017-12-13T08:56:57.494Z,978.59
2017-12-13T08:58:18.478Z,978.60
2017-12-13T08:58:57.453Z,978.50
2017-12-13T08:59:57.439Z,978.53
2017-12-13T09:00:57.441Z,978.51
2017-12-13T09:01:57.420Z,978.56
2017-12-13T09:02:57.424Z,978.53
2017-12-13T09:04:18.418Z,978.54
2017-12-13T09:04:57.424Z,978.52
2017-12-13T09:05:57.411Z,978.48
2017-12-13T09:06:57.393Z,978.45
2017-12-13T09:07:57.383Z,978.42
2017-12-13T09:08:57.387Z,978.36
2017-12-13T09:10:18.377Z,978.41
2017-12-13T09:10:57.371Z,978.35
2017-12-13T09:11:57.361Z,978.34
2017-12-13T09:12:57.354Z,978.37
2017-12-13T09:13:57.339Z,978.34
2017-12-13T09:14:57.351Z,978.35
2017-12-13T09:16:18.354Z,978.34
2017-12-13T09:16:57.337Z,978.25
2017-12-13T09:17:57.419Z,978.26
2017-12-13T09:18:57.310Z,978.29
2017-12-13T09:19:57.313Z,978.26
2017-12-13T09:20:57.304Z,978.30
2017-12-13T09:22:18.315Z,978.28
2017-12-13T09:22:57.291Z,978.24
2017-12-13T09:23:57.281Z,978.23
2017-12-13T09:24:57.280Z,978.17
2017-12-13T09:25:57.278Z,978.16
2017-12-13T09:26:57.261Z,978.17
2017-12-13T09:28:18.300Z,978.18
2017-12-13T09:28:57.243Z,978.16
2017-12-13T09:29:57.230Z,978.18
2017-12-13T09:30:57.235Z,978.11
2017-12-13T09:31:57.226Z,978.19
2017-12-13T09:32:57.257Z,978.13
2017-12-13T09:34:18.228Z,978.10
2017-12-13T09:34:57.205Z,978.09
2017-12-13T09:35:57.197Z,978.10
2017-12-13T09:36:57.193Z,978.06
2017-12-13T09:37:57.179Z,978.06
2017-12-13T09:38:57.184Z,978.01
2017-12-13T09:40:18.187Z,978.03
2017-12-13T09:40:57.168Z,977.99
2017-12-13T09:41:57.220Z,977.96
2017-12-13T09:42:57.162Z,977.91
2017-12-13T09:43:57.153Z,977.89
2017-12-13T09:44:57.143Z,977.89
2017-12-13T09:46:18.136Z,977.93
2017-12-13T09:46:57.123Z,977.85
2017-12-13T09:47:57.126Z,977.92
2017-12-13T09:48:57.118Z,977.93
2017-12-13T09:49:57.108Z,977.91
2017-12-13T09:50:57.102Z,977.84
2017-12-13T09:52:18.108Z,977.85
2017-12-13T09:52:57.091Z,977.85
2017-12-13T09:53:57.086Z,977.83
2017-12-13T09:54:57.079Z,977.84
2017-12-13T09:55:57.070Z,977.85
2017-12-13T09:56:57.075Z,977.80
2017-12-13T09:58:18.073Z,977.77
2017-12-13T09:58:57.055Z,977.73
2017-12-13T09:59:57.043Z,977.79
2017-12-13T10:00:57.038Z,977.74
2017-12-13T10:01:57.047Z,977.76
2017-12-13T10:02:57.037Z,977.68
2017-12-13T10:04:18.025Z,977.63
2017-12-13T10:04:57.028Z,977.65
2017-12-13T10:05:57.023Z,977.66
2017-12-13T10:06:56.999Z,977.59
2017-12-13T10:07:57.013Z,977.57
2017-12-13T10:08:57.017Z,977.48
2017-12-13T10:10:17.984Z,977.51
2017-12-13T10:10:56.998Z,977.46
2017-12-13T10:11:57.011Z,977.37
2017-12-13T10:12:56.994Z,977.36
2017-12-13T10:13:56.973Z,977.26
2017-12-13T10:14:56.981Z,977.28
2017-12-13T10:16:17.967Z,977.20
2017-12-13T10:16:56.962Z,977.25
2017-12-13T10:17:56.935Z,977.25
2017-12-13T10:18:56.937Z,977.25
2017-12-13T10:19:56.954Z,977.27
2017-12-13T10:20:56.949Z,977.25
2017-12-13T10:22:19.443Z,977.27
2017-12-13T10:22:56.953Z,977.24
2017-12-13T10:23:56.916Z,977.22
2017-12-13T10:24:56.927Z,977.18
2017-12-13T10:25:56.917Z,977.14
2017-12-13T10:26:56.890Z,977.10
2017-12-13T10:28:17.919Z,977.14
2017-12-13T10:28:56.936Z,977.09
2017-12-13T10:29:56.912Z,977.08
2017-12-13T10:30:56.892Z,976.97
2017-12-13T10:31:56.865Z,977.06
2017-12-13T10:32:56.876Z,977.09
2017-12-13T10:34:17.874Z,976.97
2017-12-13T10:34:56.846Z,976.95
2017-12-13T10:35:56.843Z,976.97
2017-12-13T10:36:56.872Z,976.93
2017-12-13T10:37:56.835Z,976.94
2017-12-13T10:38:56.811Z,976.88
2017-12-13T10:40:17.848Z,976.81
2017-12-13T10:40:56.824Z,976.80
2017-12-13T10:41:56.798Z,976.73
2017-12-13T10:42:56.805Z,976.79
2017-12-13T10:43:56.807Z,976.70
2017-12-13T10:44:56.813Z,976.70
2017-12-13T10:46:17.796Z,976.65
2017-12-13T10:46:56.783Z,976.62
2017-12-13T10:47:56.771Z,976.64
2017-12-13T10:48:56.752Z,976.66
2017-12-13T10:49:56.773Z,976.66
2017-12-13T10:50:56.737Z,976.60
2017-12-13T10:52:17.799Z,976.57
2017-12-13T10:52:56.804Z,976.55
2017-12-13T10:53:56.735Z,976.53
2017-12-13T10:54:56.724Z,976.49
2017-12-13T10:55:56.719Z,976.52
2017-12-13T10:56:56.716Z,976.42
2017-12-13T10:58:17.765Z,976.38
2017-12-13T10:58:56.706Z,976.34
2017-12-13T10:59:56.713Z,976.31
2017-12-13T11:00:56.700Z,976.30
2017-12-13T11:01:56.699Z,976.24
2017-12-13T11:02:56.730Z,976.25
2017-12-13T11:04:17.751Z,976.17
2017-12-13T11:04:56.683Z,976.16
2017-12-13T11:05:56.668Z,976.13
2017-12-13T11:06:56.660Z,976.10
2017-12-13T11:07:56.678Z,976.02
2017-12-13T11:08:56.648Z,976.05
2017-12-13T11:10:17.659Z,975.98
2017-12-13T11:10:56.657Z,975.94
2017-12-13T11:11:56.661Z,975.98
2017-12-13T11:12:56.660Z,976.00
2017-12-13T11:13:56.620Z,975.82
2017-12-13T11:14:56.619Z,975.87
2017-12-13T11:16:17.616Z,975.81
2017-12-13T11:16:56.605Z,975.74
2017-12-13T11:17:56.615Z,975.85
2017-12-13T11:18:56.591Z,975.73
2017-12-13T11:19:56.615Z,975.63
2017-12-13T11:20:56.611Z,975.64
2017-12-13T11:22:17.604Z,975.67
2017-12-13T11:22:56.607Z,975.59
2017-12-13T11:23:56.674Z,975.53
2017-12-13T11:24:56.585Z,975.56
2017-12-13T11:25:56.593Z,975.60
2017-12-13T11:26:56.553Z,975.49
2017-12-13T11:28:17.671Z,975.48
2017-12-13T11:28:56.640Z,975.51
2017-12-13T11:29:56.529Z,975.42
2017-12-13T11:30:56.556Z,975.40
2017-12-13T11:31:56.540Z,975.35
2017-12-13T11:32:56.507Z,975.34
2017-12-13T11:34:17.562Z,975.30
2017-12-13T11:34:56.551Z,975.28
2017-12-13T11:35:56.617Z,975.22
2017-12-13T11:36:56.558Z,975.26
2017-12-13T11:37:56.516Z,975.27
2017-12-13T11:38:56.521Z,975.20
2017-12-13T11:40:17.490Z,975.24
2017-12-13T11:40:56.472Z,975.13
2017-12-13T11:41:56.465Z,975.05
2017-12-13T11:42:56.456Z,975.00
2017-12-13T11:43:56.544Z,975.00
2017-12-13T11:44:56.469Z,974.93
2017-12-13T11:46:17.460Z,974.95
2017-12-13T11:46:56.440Z,974.87
2017-12-13T11:47:56.429Z,974.91
2017-12-13T11:48:56.428Z,974.94
2017-12-13T11:49:56.416Z,974.86
2017-12-13T11:50:56.407Z,974.78
2017-12-13T11:52:17.426Z,974.74
2017-12-13T11:52:56.450Z,974.74
2017-12-13T11:53:56.455Z,974.65
2017-12-13T11:54:56.425Z,974.58
2017-12-13T11:55:56.524Z,974.61
2017-12-13T11:56:56.422Z,974.52
2017-12-13T11:58:17.402Z,974.53
2017-12-13T11:58:56.898Z,974.45
2017-12-13T11:59:56.369Z,974.34
2017-12-13T12:00:56.430Z,974.36
2017-12-13T12:01:56.389Z,974.37
2017-12-13T12:02:56.386Z,974.38
2017-12-13T12:04:17.377Z,974.39
2017-12-13T12:04:56.371Z,974.30
2017-12-13T12:05:56.348Z,974.35
2017-12-13T12:06:56.336Z,974.35
2017-12-13T12:07:56.346Z,974.27
2017-12-13T12:08:56.362Z,974.29
2017-12-13T12:10:17.317Z,974.30
2017-12-13T12:10:56.305Z,974.31
2017-12-13T12:11:56.348Z,974.19
2017-12-13T12:12:56.346Z,974.22
2017-12-13T12:13:56.514Z,974.29
2017-12-13T12:14:56.491Z,974.12
2017-12-13T12:16:17.304Z,974.15
2017-12-13T12:16:56.283Z,974.08
2017-12-13T12:17:56.296Z,974.15
2017-12-13T12:18:56.282Z,974.15
2017-12-13T12:19:56.293Z,974.16
2017-12-13T12:20:56.271Z,974.14
2017-12-13T12:22:17.263Z,974.14
2017-12-13T12:22:56.292Z,974.09
2017-12-13T12:23:56.246Z,974.10
2017-12-13T12:24:56.268Z,974.02
2017-12-13T12:25:56.228Z,973.99
2017-12-13T12:26:56.264Z,974.09
2017-12-13T12:28:17.233Z,973.91